createdAt,value
2022-09-30T00:01:39.787Z,59.12
2022-09-30T00:04:11.889Z,59.06
2022-09-30T00:06:40.009Z,59.18
2022-09-30T00:09:08.441Z,59.35
2022-09-30T00:11:39.374Z,59.49
2022-09-30T00:14:08.457Z,59.51
2022-09-30T00:16:38.094Z,60.09
2022-09-30T00:19:06.609Z,59.98
2022-09-30T00:21:36.043Z,60.18
2022-09-30T00:24:05.690Z,60.24
2022-09-30T00:26:34.281Z,60.23
2022-09-30T00:29:03.222Z,60.28
2022-09-30T00:31:33.246Z,60.25
2022-09-30T00:34:11.810Z,60.57
2022-09-30T00:36:44.608Z,60.38
2022-09-30T00:39:15.005Z,60.54
2022-09-30T00:41:43.418Z,60.54
2022-09-30T00:44:51.290Z,60.25
2022-09-30T00:47:43.510Z,60.30
2022-09-30T00:50:30.846Z,60.33
2022-09-30T00:53:08.965Z,60.43
2022-09-30T00:55:47.396Z,60.43
2022-09-30T00:58:19.249Z,60.47
2022-09-30T01:00:48.352Z,60.40
2022-09-30T01:03:16.402Z,60.33
2022-09-30T01:05:44.674Z,60.37
2022-09-30T01:08:14.145Z,60.51
2022-09-30T01:10:42.211Z,60.65
2022-09-30T01:13:10.334Z,60.60
2022-09-30T01:15:51.385Z,60.31
2022-09-30T01:18:27.313Z,60.44
2022-09-30T01:21:34.801Z,60.21
2022-09-30T01:24:25.646Z,60.41
2022-09-30T01:27:13.439Z,60.48
2022-09-30T01:30:09.510Z,60.86
2022-09-30T01:33:01.837Z,60.83
2022-09-30T01:35:40.053Z,60.86
2022-09-30T01:38:15.072Z,60.91
2022-09-30T01:40:49.629Z,61.07
2022-09-30T01:43:29.760Z,61.25
2022-09-30T01:46:00.324Z,61.21
2022-09-30T01:48:42.551Z,60.98
2022-09-30T01:51:18.137Z,61.32
2022-09-30T01:53:51.331Z,61.36
2022-09-30T01:56:23.780Z,61.43
2022-09-30T01:58:55.193Z,61.38
2022-09-30T02:01:31.709Z,61.50
2022-09-30T02:04:06.923Z,61.31
2022-09-30T02:06:39.598Z,61.37
2022-09-30T02:09:13.315Z,61.26
2022-09-30T02:11:42.985Z,61.20
2022-09-30T02:14:16.258Z,61.14
2022-09-30T02:16:48.302Z,60.98
2022-09-30T02:19:23.372Z,61.05
2022-09-30T02:21:57.043Z,61.07
2022-09-30T02:24:27.779Z,61.09
2022-09-30T02:26:59.502Z,61.21
2022-09-30T02:29:31.189Z,61.13
2022-09-30T02:32:06.229Z,61.23
2022-09-30T02:34:39.372Z,61.04
2022-09-30T02:37:13.290Z,60.76
2022-09-30T02:39:45.729Z,60.57
2022-09-30T02:42:20.291Z,60.44
2022-09-30T02:44:49.980Z,60.45
2022-09-30T02:47:26.734Z,60.30
2022-09-30T02:50:01.877Z,60.19
2022-09-30T02:52:43.901Z,60.23
2022-09-30T02:55:19.830Z,60.60
2022-09-30T02:57:58.996Z,60.71
2022-09-30T03:00:27.790Z,61.01
2022-09-30T03:03:01.597Z,60.88
2022-09-30T03:05:31.055Z,60.93
2022-09-30T03:07:59.259Z,60.96
2022-09-30T03:10:27.295Z,60.85
2022-09-30T03:13:16.542Z,60.58
2022-09-30T03:15:57.190Z,60.70
2022-09-30T03:18:48.230Z,60.64
2022-09-30T03:21:33.942Z,60.78
2022-09-30T03:24:23.678Z,60.89
2022-09-30T03:27:01.750Z,60.93
2022-09-30T03:29:39.236Z,60.86
2022-09-30T03:32:19.938Z,60.99
2022-09-30T03:35:13.545Z,61.12
2022-09-30T03:37:52.886Z,61.24
2022-09-30T03:40:28.931Z,61.33
2022-09-30T03:43:01.790Z,61.58
2022-09-30T03:45:34.673Z,61.63
2022-09-30T03:48:06.470Z,61.60
2022-09-30T03:50:36.999Z,61.47
2022-09-30T03:53:12.649Z,61.18
2022-09-30T03:55:49.370Z,60.95
2022-09-30T03:58:18.991Z,61.02
2022-09-30T04:00:50.733Z,61.09
2022-09-30T04:03:20.749Z,61.42
2022-09-30T04:05:49.332Z,61.59
2022-09-30T04:08:18.842Z,61.69
2022-09-30T04:10:47.090Z,61.85
2022-09-30T04:13:15.107Z,61.73
2022-09-30T04:15:43.114Z,61.76
2022-09-30T04:18:11.126Z,61.93
2022-09-30T04:20:39.715Z,61.89
2022-09-30T04:23:07.790Z,61.86
2022-09-30T04:25:37.210Z,61.84
2022-09-30T04:28:05.237Z,61.92
2022-09-30T04:30:33.806Z,61.90
2022-09-30T04:33:01.936Z,61.99
2022-09-30T04:35:30.363Z,61.94
2022-09-30T04:37:58.531Z,61.82
2022-09-30T04:40:26.638Z,61.67
2022-09-30T04:42:58.583Z,61.41
2022-09-30T04:45:26.690Z,61.32
2022-09-30T04:47:54.968Z,61.17
2022-09-30T04:50:23.127Z,61.12
2022-09-30T04:52:51.866Z,61.02
2022-09-30T04:55:19.922Z,60.95
2022-09-30T04:57:47.998Z,60.89
2022-09-30T05:00:17.450Z,60.85
2022-09-30T05:02:45.931Z,60.79
2022-09-30T05:05:14.217Z,60.82
2022-09-30T05:07:42.247Z,60.79
2022-09-30T05:10:11.584Z,60.81
2022-09-30T05:12:41.007Z,60.79
2022-09-30T05:15:10.445Z,60.72
2022-09-30T05:17:39.856Z,60.64
2022-09-30T05:20:10.871Z,60.81
2022-09-30T05:22:39.467Z,60.86
2022-09-30T05:25:08.300Z,60.80
2022-09-30T05:27:36.409Z,60.73
2022-09-30T05:30:06.731Z,60.62
2022-09-30T05:32:34.902Z,60.65
2022-09-30T05:35:04.648Z,60.65
2022-09-30T05:37:32.669Z,60.75
2022-09-30T05:40:01.166Z,60.83
2022-09-30T05:42:29.179Z,60.75
2022-09-30T05:44:57.216Z,60.83
2022-09-30T05:47:25.323Z,60.88
2022-09-30T05:49:56.107Z,60.94
2022-09-30T05:52:25.979Z,61.26
2022-09-30T05:54:54.253Z,61.54
2022-09-30T05:57:22.266Z,61.70
2022-09-30T05:59:51.027Z,61.76
2022-09-30T06:02:19.149Z,61.75
2022-09-30T06:04:47.200Z,61.87
2022-09-30T06:07:15.242Z,62.09
2022-09-30T06:09:46.136Z,62.24
2022-09-30T06:12:14.280Z,62.28
2022-09-30T06:14:42.297Z,62.26
2022-09-30T06:17:10.384Z,62.21
2022-09-30T06:19:40.292Z,62.36
2022-09-30T06:22:08.335Z,62.51
2022-09-30T06:24:36.517Z,62.64
2022-09-30T06:27:05.947Z,62.70
2022-09-30T06:29:33.962Z,62.68
2022-09-30T06:32:02.788Z,62.68
2022-09-30T06:34:30.921Z,62.79
2022-09-30T06:36:59.087Z,62.81
2022-09-30T06:39:28.205Z,62.76
2022-09-30T06:41:56.434Z,62.73
2022-09-30T06:44:28.430Z,62.66
2022-09-30T06:46:56.536Z,62.77
2022-09-30T06:49:25.041Z,62.90
2022-09-30T06:51:53.338Z,63.02
2022-09-30T06:54:21.995Z,63.09
2022-09-30T06:56:53.412Z,63.16
2022-09-30T06:59:21.478Z,63.25
2022-09-30T07:01:50.926Z,63.22
2022-09-30T07:04:20.546Z,62.89
2022-09-30T07:06:48.603Z,62.98
2022-09-30T07:09:17.860Z,63.02
2022-09-30T07:11:46.015Z,63.40
2022-09-30T07:14:14.526Z,63.45
2022-09-30T07:16:44.808Z,63.27
2022-09-30T07:19:14.675Z,62.70
2022-09-30T07:21:42.721Z,61.91
2022-09-30T07:24:11.677Z,60.83
2022-09-30T07:26:40.214Z,59.48
2022-09-30T07:29:08.312Z,59.12
2022-09-30T07:31:36.606Z,58.09
2022-09-30T07:34:07.704Z,58.29
2022-09-30T07:36:38.296Z,59.03
2022-09-30T07:39:09.157Z,59.46
2022-09-30T07:41:39.615Z,59.57
2022-09-30T07:44:12.294Z,59.56
2022-09-30T07:46:40.630Z,59.82
2022-09-30T07:49:13.512Z,60.12
2022-09-30T07:51:45.523Z,60.06
2022-09-30T07:54:15.649Z,60.02
2022-09-30T07:57:09.395Z,60.69
2022-09-30T07:59:34.628Z,59.77
2022-09-30T08:02:02.856Z,60.01
2022-09-30T08:04:31.178Z,58.87
2022-09-30T08:07:02.701Z,56.50
2022-09-30T08:09:31.799Z,55.68
2022-09-30T08:12:00.110Z,55.13
2022-09-30T08:14:29.199Z,54.55
2022-09-30T08:16:58.555Z,54.02
2022-09-30T08:19:28.960Z,53.72
2022-09-30T08:21:57.608Z,54.16
2022-09-30T08:24:27.982Z,54.19
2022-09-30T08:26:56.692Z,54.71
2022-09-30T08:32:13.053Z,52.63
2022-09-30T08:34:41.101Z,52.16
2022-09-30T08:37:10.264Z,52.13
2022-09-30T08:39:40.085Z,51.56
2022-09-30T08:42:36.841Z,48.93
2022-09-30T08:45:16.453Z,48.86
2022-09-30T08:47:50.202Z,49.93
2022-09-30T08:50:29.236Z,49.79
2022-09-30T08:53:02.513Z,50.34
2022-09-30T08:55:39.380Z,48.53
2022-09-30T08:58:12.280Z,46.89
2022-09-30T09:00:41.809Z,46.22
2022-09-30T09:03:14.328Z,45.09
2022-09-30T09:05:54.833Z,45.83
2022-09-30T09:08:30.548Z,45.27
2022-09-30T09:11:09.071Z,43.73
2022-09-30T09:13:50.985Z,42.58
2022-09-30T09:16:25.507Z,41.36
2022-09-30T09:19:00.393Z,41.58
2022-09-30T09:21:38.029Z,40.42
2022-09-30T09:24:12.178Z,40.10
2022-09-30T09:26:41.553Z,39.75
2022-09-30T09:29:23.689Z,39.84
2022-09-30T09:31:51.842Z,39.38
2022-09-30T09:34:19.946Z,38.62
2022-09-30T09:37:03.257Z,39.20
2022-09-30T09:39:47.784Z,39.23
2022-09-30T09:42:31.067Z,36.92
2022-09-30T09:45:03.819Z,36.46
2022-09-30T09:47:32.328Z,36.72
2022-09-30T09:50:04.453Z,36.95
2022-09-30T09:52:58.325Z,36.19
2022-09-30T09:55:26.414Z,35.88
2022-09-30T09:58:11.189Z,34.70
2022-09-30T10:00:55.748Z,34.36
2022-09-30T10:03:26.594Z,35.52
2022-09-30T10:06:04.713Z,34.92
2022-09-30T10:08:34.398Z,35.48
2022-09-30T10:11:04.666Z,34.64
2022-09-30T10:13:42.253Z,34.75
2022-09-30T10:16:28.653Z,34.19
2022-09-30T10:18:56.965Z,34.21
2022-09-30T10:21:27.227Z,33.47
2022-09-30T10:23:57.520Z,35.52
2022-09-30T10:29:05.062Z,34.11
2022-09-30T10:31:36.397Z,32.48
2022-09-30T10:34:12.633Z,33.44
2022-09-30T10:36:44.701Z,32.54
2022-09-30T10:39:23.239Z,33.44
2022-09-30T10:41:52.785Z,32.27
2022-09-30T10:44:24.706Z,32.56
2022-09-30T10:46:54.675Z,32.02
2022-09-30T10:49:28.338Z,33.13
2022-09-30T10:51:57.101Z,34.22
2022-09-30T10:54:49.584Z,35.56
2022-09-30T10:57:22.174Z,37.58
2022-09-30T10:59:53.998Z,37.13
2022-09-30T11:02:31.519Z,38.15
2022-09-30T11:05:11.726Z,39.92
2022-09-30T11:07:46.230Z,37.34
2022-09-30T11:10:28.377Z,35.95
2022-09-30T11:13:01.780Z,34.88
2022-09-30T11:15:36.903Z,35.37
2022-09-30T11:18:12.950Z,35.23
2022-09-30T11:20:45.937Z,36.32
2022-09-30T11:23:21.234Z,37.64
2022-09-30T11:25:56.307Z,37.17
2022-09-30T11:28:59.620Z,36.78
2022-09-30T11:31:34.122Z,38.12
2022-09-30T11:34:16.659Z,35.76
2022-09-30T11:36:53.234Z,34.92
2022-09-30T11:39:44.568Z,33.29
2022-09-30T11:42:20.393Z,33.26
2022-09-30T11:44:50.314Z,32.14
2022-09-30T11:47:41.244Z,30.28
2022-09-30T11:50:24.363Z,30.75
2022-09-30T11:53:03.687Z,30.13
2022-09-30T11:55:45.388Z,29.84
2022-09-30T11:58:39.862Z,29.87
2022-09-30T12:01:15.669Z,30.79
2022-09-30T12:03:48.923Z,29.71
2022-09-30T12:06:23.137Z,30.66
2022-09-30T12:08:59.841Z,30.24
2022-09-30T12:11:35.121Z,29.47
2022-09-30T12:14:08.417Z,30.01
2022-09-30T12:16:38.915Z,29.07
2022-09-30T12:19:16.395Z,29.28
2022-09-30T12:21:53.253Z,31.91
2022-09-30T12:24:29.882Z,32.38
2022-09-30T12:26:59.095Z,30.99
2022-09-30T12:29:49.019Z,30.84
2022-09-30T12:33:13.829Z,31.03
2022-09-30T12:36:15.160Z,31.80
2022-09-30T12:39:25.978Z,32.54
2022-09-30T12:42:07.215Z,34.36
2022-09-30T12:45:07.949Z,34.62
2022-09-30T12:47:45.879Z,35.52
2022-09-30T12:50:17.205Z,35.56
2022-09-30T12:52:45.710Z,36.05
2022-09-30T12:55:25.621Z,35.50
2022-09-30T12:57:54.560Z,35.71
2022-09-30T13:00:25.232Z,35.28
2022-09-30T13:02:58.010Z,34.88
2022-09-30T13:05:55.071Z,34.50
2022-09-30T13:08:44.239Z,34.28
2022-09-30T13:11:42.630Z,34.97
2022-09-30T13:14:25.069Z,35.85
2022-09-30T13:17:25.522Z,35.77
2022-09-30T13:19:55.919Z,36.29
2022-09-30T13:22:58.184Z,36.56
2022-09-30T13:25:26.590Z,36.23
2022-09-30T13:28:34.158Z,36.55
2022-09-30T13:31:25.429Z,36.24
2022-09-30T13:34:11.346Z,35.13
2022-09-30T13:36:57.789Z,34.70
2022-09-30T13:39:29.054Z,35.28
2022-09-30T13:42:07.388Z,35.34
2022-09-30T13:44:45.825Z,35.74
2022-09-30T13:47:26.386Z,35.77
2022-09-30T13:50:01.326Z,36.10
2022-09-30T13:52:32.614Z,36.38
2022-09-30T13:55:06.649Z,36.00
2022-09-30T13:57:47.778Z,36.21
2022-09-30T14:00:18.750Z,36.42
2022-09-30T14:03:07.074Z,37.50
2022-09-30T14:05:56.857Z,35.73
2022-09-30T14:08:48.065Z,35.63
2022-09-30T14:11:39.222Z,35.72
2022-09-30T14:14:23.100Z,35.00
2022-09-30T14:17:18.051Z,35.25
2022-09-30T14:20:00.315Z,35.59
2022-09-30T14:22:30.581Z,36.02
2022-09-30T14:24:59.214Z,36.52
2022-09-30T14:27:49.525Z,36.28
2022-09-30T14:30:21.066Z,36.11
2022-09-30T14:32:52.033Z,36.11
2022-09-30T14:35:23.445Z,36.08
2022-09-30T14:37:53.750Z,35.36
2022-09-30T14:40:26.975Z,35.35
2022-09-30T14:42:59.355Z,35.65
2022-09-30T14:45:30.139Z,35.39
2022-09-30T14:48:02.577Z,36.02
2022-09-30T14:50:38.015Z,36.50
2022-09-30T14:53:06.757Z,36.95
2022-09-30T14:55:38.040Z,37.50
2022-09-30T14:58:26.854Z,37.78
2022-09-30T15:01:02.805Z,38.49
2022-09-30T15:03:33.392Z,38.82
2022-09-30T15:06:03.257Z,38.28
2022-09-30T15:08:31.751Z,38.49
2022-09-30T15:10:59.862Z,37.89
2022-09-30T15:13:31.231Z,37.57
2022-09-30T15:15:59.609Z,37.57
2022-09-30T15:18:33.074Z,37.68
2022-09-30T15:21:13.303Z,37.84
2022-09-30T15:23:44.006Z,38.20
2022-09-30T15:26:13.845Z,37.85
2022-09-30T15:28:41.941Z,38.04
2022-09-30T15:31:23.390Z,38.36
2022-09-30T15:34:05.492Z,38.81
2022-09-30T15:36:36.990Z,38.90
2022-09-30T15:39:07.027Z,39.09
2022-09-30T15:41:41.154Z,39.30
2022-09-30T15:44:17.970Z,39.61
2022-09-30T15:47:03.169Z,39.55
2022-09-30T15:49:35.102Z,39.82
2022-09-30T15:52:30.534Z,39.98
2022-09-30T15:54:59.333Z,40.39
2022-09-30T15:57:45.562Z,40.18
2022-09-30T16:00:34.681Z,40.19
2022-09-30T16:03:26.017Z,40.47
2022-09-30T16:05:54.677Z,40.62
2022-09-30T16:08:28.446Z,40.57
2022-09-30T16:10:59.167Z,40.50
2022-09-30T16:13:30.783Z,40.97
2022-09-30T16:15:59.509Z,40.91
2022-09-30T16:18:32.668Z,41.32
2022-09-30T16:21:05.366Z,41.46
2022-09-30T16:23:37.658Z,41.68
2022-09-30T16:26:24.462Z,41.66
2022-09-30T16:28:53.582Z,41.81
2022-09-30T16:31:21.821Z,42.01
2022-09-30T16:33:49.945Z,42.28
2022-09-30T16:36:18.044Z,42.41
2022-09-30T16:38:47.455Z,42.61
2022-09-30T16:41:15.619Z,42.65
2022-09-30T16:43:44.661Z,42.93
2022-09-30T16:46:13.622Z,43.02
2022-09-30T16:48:41.717Z,43.13
2022-09-30T16:51:15.457Z,43.24
2022-09-30T16:53:44.071Z,43.45
2022-09-30T16:56:17.411Z,43.58
2022-09-30T16:58:46.033Z,43.84
2022-09-30T17:01:20.469Z,44.05
2022-09-30T17:03:49.126Z,44.24
2022-09-30T17:06:18.998Z,44.39
2022-09-30T17:08:49.477Z,44.45
2022-09-30T17:11:19.582Z,44.51
2022-09-30T17:13:47.765Z,44.58
2022-09-30T17:16:15.819Z,44.68
2022-09-30T17:18:43.851Z,44.99
2022-09-30T17:21:12.044Z,44.98
2022-09-30T17:23:40.792Z,45.22
2022-09-30T17:26:08.867Z,45.21
2022-09-30T17:28:38.368Z,45.28
2022-09-30T17:31:07.023Z,45.40
2022-09-30T17:33:37.253Z,46.12
2022-09-30T17:36:07.632Z,46.37
2022-09-30T17:38:36.040Z,46.02
2022-09-30T17:41:22.432Z,46.02
2022-09-30T17:43:52.018Z,46.30
2022-09-30T17:46:23.550Z,46.14
2022-09-30T17:48:56.295Z,46.25
2022-09-30T17:51:24.542Z,46.47
2022-09-30T17:53:52.539Z,46.57
2022-09-30T17:56:22.722Z,46.68
2022-09-30T17:58:52.391Z,46.79
2022-09-30T18:01:22.332Z,46.93
2022-09-30T18:03:53.033Z,46.99
2022-09-30T18:06:21.485Z,47.18
2022-09-30T18:08:49.697Z,47.26
2022-09-30T18:11:21.154Z,47.42
2022-09-30T18:13:55.098Z,47.41
2022-09-30T18:16:24.540Z,47.59
2022-09-30T18:18:52.878Z,47.57
2022-09-30T18:21:20.997Z,47.82
2022-09-30T18:23:53.290Z,48.07
2022-09-30T18:26:24.033Z,48.17
2022-09-30T18:28:54.158Z,48.21
2022-09-30T18:31:28.541Z,48.47
2022-09-30T18:33:57.080Z,48.73
2022-09-30T18:36:26.648Z,48.69
2022-09-30T18:38:58.706Z,48.66
2022-09-30T18:41:27.859Z,48.64
2022-09-30T18:44:02.416Z,49.15
2022-09-30T18:46:31.490Z,49.26
2022-09-30T18:48:59.702Z,49.30
2022-09-30T18:51:29.216Z,49.31
2022-09-30T18:53:59.420Z,49.33
2022-09-30T18:56:31.424Z,49.60
2022-09-30T18:59:03.607Z,49.60
2022-09-30T19:01:33.156Z,49.56
2022-09-30T19:04:03.875Z,49.82
2022-09-30T19:06:32.134Z,49.82
2022-09-30T19:09:00.349Z,49.85
2022-09-30T19:11:30.573Z,50.06
2022-09-30T19:14:02.530Z,50.18
2022-09-30T19:16:35.349Z,50.30
2022-09-30T19:19:08.186Z,50.16
2022-09-30T19:21:36.246Z,50.19
2022-09-30T19:24:05.410Z,50.37
2022-09-30T19:26:34.394Z,50.44
2022-09-30T19:29:05.356Z,50.49
2022-09-30T19:31:35.003Z,50.48
2022-09-30T19:34:04.049Z,50.53
2022-09-30T19:36:38.258Z,50.43
2022-09-30T19:39:12.176Z,50.46
2022-09-30T19:41:40.810Z,50.31
2022-09-30T19:44:10.207Z,50.32
2022-09-30T19:46:38.294Z,50.27
2022-09-30T19:49:06.328Z,50.30
2022-09-30T19:51:34.798Z,50.29
2022-09-30T19:54:07.304Z,50.47
2022-09-30T19:56:36.356Z,50.38
2022-09-30T19:59:05.281Z,50.37
2022-09-30T20:01:35.657Z,50.87
2022-09-30T20:04:05.356Z,51.01
2022-09-30T20:06:34.683Z,51.15
2022-09-30T20:09:05.732Z,50.59
2022-09-30T20:11:36.392Z,50.43
2022-09-30T20:14:23.897Z,50.37
2022-09-30T20:16:54.443Z,50.51
2022-09-30T20:19:23.107Z,50.47
2022-09-30T20:21:51.809Z,50.55
2022-09-30T20:24:20.006Z,50.46
2022-09-30T20:26:50.218Z,50.59
2022-09-30T20:29:20.506Z,50.48
2022-09-30T20:31:50.416Z,50.34
2022-09-30T20:34:20.225Z,50.33
2022-09-30T20:36:48.463Z,50.34
2022-09-30T20:39:16.550Z,50.27
2022-09-30T20:41:46.161Z,50.21
2022-09-30T20:44:16.099Z,50.05
2022-09-30T20:46:44.122Z,50.05
2022-09-30T20:49:12.142Z,50.12
2022-09-30T20:51:41.521Z,50.10
2022-09-30T20:54:10.482Z,50.01
2022-09-30T20:57:05.380Z,49.82
2022-09-30T20:59:26.581Z,49.85
2022-09-30T21:01:54.609Z,49.84
2022-09-30T21:04:22.682Z,49.79
2022-09-30T21:06:52.056Z,49.77
2022-09-30T21:09:20.077Z,49.95
2022-09-30T21:11:48.075Z,49.69
2022-09-30T21:14:19.360Z,49.67
2022-09-30T21:16:47.425Z,49.71
2022-09-30T21:19:15.437Z,49.72
2022-09-30T21:21:43.452Z,49.65
2022-09-30T21:24:16.034Z,49.53
2022-09-30T21:26:44.310Z,49.68
2022-09-30T21:29:12.285Z,49.69
2022-09-30T21:31:40.508Z,49.66
2022-09-30T21:34:08.537Z,49.62
2022-09-30T21:36:36.565Z,49.52
2022-09-30T21:39:04.609Z,49.58
2022-09-30T21:41:35.723Z,49.62
2022-09-30T21:44:04.344Z,49.53
2022-09-30T21:46:35.596Z,49.57
2022-09-30T21:49:08.023Z,49.50
2022-09-30T21:51:36.503Z,49.52
2022-09-30T21:54:04.574Z,49.40
2022-09-30T21:56:33.934Z,49.34
2022-09-30T21:59:01.922Z,49.29
2022-09-30T22:01:30.591Z,49.22
2022-09-30T22:03:58.970Z,49.18
2022-09-30T22:06:28.534Z,49.13
2022-09-30T22:08:56.589Z,49.00
2022-09-30T22:11:25.223Z,48.90
2022-09-30T22:13:56.952Z,48.79
2022-09-30T22:16:27.295Z,48.58
2022-09-30T22:18:57.404Z,48.62
2022-09-30T22:21:26.856Z,48.70
2022-09-30T22:23:55.140Z,48.31
2022-09-30T22:26:24.649Z,48.30
2022-09-30T22:28:57.261Z,48.32
2022-09-30T22:31:27.970Z,48.19
2022-09-30T22:34:16.117Z,48.20
2022-09-30T22:37:01.787Z,48.18
2022-09-30T22:39:30.575Z,48.01
2022-09-30T22:41:59.699Z,48.06
2022-09-30T22:44:33.306Z,48.05
2022-09-30T22:47:01.997Z,48.03
2022-09-30T22:49:32.529Z,47.87
2022-09-30T22:52:01.931Z,47.83
2022-09-30T22:54:30.601Z,47.94
2022-09-30T22:57:00.180Z,47.86
2022-09-30T22:59:30.724Z,47.92
2022-09-30T23:01:58.868Z,48.09
2022-09-30T23:04:27.508Z,47.95
2022-09-30T23:06:56.462Z,48.10
2022-09-30T23:09:25.173Z,48.02
2022-09-30T23:11:57.012Z,48.04
2022-09-30T23:14:25.559Z,48.24
2022-09-30T23:16:55.004Z,48.09
2022-09-30T23:19:23.105Z,47.99
2022-09-30T23:21:51.122Z,48.10
2022-09-30T23:24:19.187Z,48.16
2022-09-30T23:26:47.209Z,48.29
2022-09-30T23:29:15.893Z,48.41
2022-09-30T23:31:43.885Z,48.44
2022-09-30T23:34:13.351Z,48.44
2022-09-30T23:36:41.569Z,48.35
2022-09-30T23:39:14.442Z,48.46
2022-09-30T23:41:46.348Z,48.76
2022-09-30T23:44:14.752Z,48.92
2022-09-30T23:47:03.289Z,49.34
2022-09-30T23:49:35.821Z,49.64
2022-09-30T23:52:04.982Z,49.99
2022-09-30T23:54:34.180Z,50.40
2022-09-30T23:57:03.169Z,50.47
2022-09-30T23:59:31.401Z,50.84
